sensor_id;sensor_type;location;lat;lon;timestamp;temperature;humidity
43673;DHT22;41723;49.326;8.430;2024-03-22T00:01:52;13.20;99.90
43673;DHT22;41723;49.326;8.430;2024-03-22T00:04:18;13.20;99.90
43673;DHT22;41723;49.326;8.430;2024-03-22T00:06:44;13.20;99.90
43673;DHT22;41723;49.326;8.430;2024-03-22T00:09:10;13.20;99.90
43673;DHT22;41723;49.326;8.430;2024-03-22T00:11:36;13.20;99.90
43673;DHT22;41723;49.326;8.430;2024-03-22T00:14:02;13.20;99.90
43673;DHT22;41723;49.326;8.430;2024-03-22T00:16:28;13.10;99.90
43673;DHT22;41723;49.326;8.430;2024-03-22T00:18:53;13.10;99.90
43673;DHT22;41723;49.326;8.430;2024-03-22T00:21:19;13.00;99.90
43673;DHT22;41723;49.326;8.430;2024-03-22T00:23:45;13.00;99.90
43673;DHT22;41723;49.326;8.430;2024-03-22T00:26:11;13.00;99.90
43673;DHT22;41723;49.326;8.430;2024-03-22T00:28:36;13.00;99.90
43673;DHT22;41723;49.326;8.430;2024-03-22T00:31:02;13.00;99.90
43673;DHT22;41723;49.326;8.430;2024-03-22T00:33:27;12.90;99.90
43673;DHT22;41723;49.326;8.430;2024-03-22T00:35:53;12.90;99.90
43673;DHT22;41723;49.326;8.430;2024-03-22T00:38:19;12.90;99.90
43673;DHT22;41723;49.326;8.430;2024-03-22T00:40:44;12.90;99.90
43673;DHT22;41723;49.326;8.430;2024-03-22T00:43:10;12.90;99.90
43673;DHT22;41723;49.326;8.430;2024-03-22T00:45:35;12.80;99.90
43673;DHT22;41723;49.326;8.430;2024-03-22T00:48:01;12.80;99.90
43673;DHT22;41723;49.326;8.430;2024-03-22T00:50:27;12.70;99.90
43673;DHT22;41723;49.326;8.430;2024-03-22T00:52:54;12.60;99.90
43673;DHT22;41723;49.326;8.430;2024-03-22T00:55:22;12.60;99.90
43673;DHT22;41723;49.326;8.430;2024-03-22T00:57:47;12.60;99.90
43673;DHT22;41723;49.326;8.430;2024-03-22T01:00:13;12.50;99.90
43673;DHT22;41723;49.326;8.430;2024-03-22T01:02:39;12.60;99.90
43673;DHT22;41723;49.326;8.430;2024-03-22T01:05:04;12.50;99.90
43673;DHT22;41723;49.326;8.430;2024-03-22T01:07:30;12.50;99.90
43673;DHT22;41723;49.326;8.430;2024-03-22T01:09:55;12.50;99.90
43673;DHT22;41723;49.326;8.430;2024-03-22T01:12:21;12.60;99.90
43673;DHT22;41723;49.326;8.430;2024-03-22T01:14:46;12.40;99.90
43673;DHT22;41723;49.326;8.430;2024-03-22T01:17:12;12.40;99.90
43673;DHT22;41723;49.326;8.430;2024-03-22T01:19:38;12.50;99.90
43673;DHT22;41723;49.326;8.430;2024-03-22T01:22:03;12.50;99.90
43673;DHT22;41723;49.326;8.430;2024-03-22T01:24:29;12.50;99.90
43673;DHT22;41723;49.326;8.430;2024-03-22T01:26:55;12.40;99.90
43673;DHT22;41723;49.326;8.430;2024-03-22T01:29:20;12.50;99.90
43673;DHT22;41723;49.326;8.430;2024-03-22T01:31:47;12.30;99.90
43673;DHT22;41723;49.326;8.430;2024-03-22T01:34:13;12.10;99.90
43673;DHT22;41723;49.326;8.430;2024-03-22T01:36:39;12.10;99.90
43673;DHT22;41723;49.326;8.430;2024-03-22T01:39:04;12.20;99.90
43673;DHT22;41723;49.326;8.430;2024-03-22T01:41:30;12.30;99.90
43673;DHT22;41723;49.326;8.430;2024-03-22T01:43:56;12.30;99.90
43673;DHT22;41723;49.326;8.430;2024-03-22T01:46:21;12.10;99.90
43673;DHT22;41723;49.326;8.430;2024-03-22T01:48:47;12.20;99.90
43673;DHT22;41723;49.326;8.430;2024-03-22T01:51:13;12.10;99.90
43673;DHT22;41723;49.326;8.430;2024-03-22T01:53:38;12.00;99.90
43673;DHT22;41723;49.326;8.430;2024-03-22T01:56:04;12.00;99.90
43673;DHT22;41723;49.326;8.430;2024-03-22T01:58:31;12.00;99.90
43673;DHT22;41723;49.326;8.430;2024-03-22T02:00:56;11.90;99.90
43673;DHT22;41723;49.326;8.430;2024-03-22T02:03:22;11.90;99.90
43673;DHT22;41723;49.326;8.430;2024-03-22T02:05:47;11.80;99.90
43673;DHT22;41723;49.326;8.430;2024-03-22T02:08:13;11.80;99.90
43673;DHT22;41723;49.326;8.430;2024-03-22T02:10:39;11.90;99.90
43673;DHT22;41723;49.326;8.430;2024-03-22T02:13:04;12.00;99.90
43673;DHT22;41723;49.326;8.430;2024-03-22T02:15:30;11.80;99.90
43673;DHT22;41723;49.326;8.430;2024-03-22T02:17:56;11.90;99.90
43673;DHT22;41723;49.326;8.430;2024-03-22T02:20:22;11.90;99.90
43673;DHT22;41723;49.326;8.430;2024-03-22T02:22:47;12.00;99.90
43673;DHT22;41723;49.326;8.430;2024-03-22T02:25:13;12.10;99.90
43673;DHT22;41723;49.326;8.430;2024-03-22T02:27:39;12.10;99.90
43673;DHT22;41723;49.326;8.430;2024-03-22T02:30:04;12.00;99.90
43673;DHT22;41723;49.326;8.430;2024-03-22T02:32:30;11.90;99.90
43673;DHT22;41723;49.326;8.430;2024-03-22T02:34:56;12.00;99.90
43673;DHT22;41723;49.326;8.430;2024-03-22T02:37:21;12.00;99.90
43673;DHT22;41723;49.326;8.430;2024-03-22T02:39:47;12.00;99.90
43673;DHT22;41723;49.326;8.430;2024-03-22T02:42:12;12.00;99.90
43673;DHT22;41723;49.326;8.430;2024-03-22T02:44:38;11.90;99.90
43673;DHT22;41723;49.326;8.430;2024-03-22T02:47:11;11.90;99.90
43673;DHT22;41723;49.326;8.430;2024-03-22T02:49:38;11.80;99.90
43673;DHT22;41723;49.326;8.430;2024-03-22T02:52:03;11.80;99.90
43673;DHT22;41723;49.326;8.430;2024-03-22T02:54:29;11.80;99.90
43673;DHT22;41723;49.326;8.430;2024-03-22T02:56:55;11.80;99.90
43673;DHT22;41723;49.326;8.430;2024-03-22T02:59:20;11.80;99.90
43673;DHT22;41723;49.326;8.430;2024-03-22T03:01:46;11.70;99.90
43673;DHT22;41723;49.326;8.430;2024-03-22T03:04:11;11.70;99.90
43673;DHT22;41723;49.326;8.430;2024-03-22T03:06:37;11.70;99.90
43673;DHT22;41723;49.326;8.430;2024-03-22T03:09:02;11.70;99.90
43673;DHT22;41723;49.326;8.430;2024-03-22T03:11:30;11.60;99.90
43673;DHT22;41723;49.326;8.430;2024-03-22T03:13:56;11.60;99.90
43673;DHT22;41723;49.326;8.430;2024-03-22T03:16:22;11.60;99.90
43673;DHT22;41723;49.326;8.430;2024-03-22T03:18:47;11.60;99.90
43673;DHT22;41723;49.326;8.430;2024-03-22T03:21:13;11.40;99.90
43673;DHT22;41723;49.326;8.430;2024-03-22T03:23:38;11.30;99.90
43673;DHT22;41723;49.326;8.430;2024-03-22T03:26:04;11.30;99.90
43673;DHT22;41723;49.326;8.430;2024-03-22T03:28:29;11.20;99.90
43673;DHT22;41723;49.326;8.430;2024-03-22T03:30:57;11.30;99.90
43673;DHT22;41723;49.326;8.430;2024-03-22T03:33:22;11.30;99.90
43673;DHT22;41723;49.326;8.430;2024-03-22T03:35:48;11.20;99.90
43673;DHT22;41723;49.326;8.430;2024-03-22T03:38:13;11.30;99.90
43673;DHT22;41723;49.326;8.430;2024-03-22T03:40:39;11.40;99.90
43673;DHT22;41723;49.326;8.430;2024-03-22T03:43:05;11.40;99.90
43673;DHT22;41723;49.326;8.430;2024-03-22T03:45:30;11.50;99.90
43673;DHT22;41723;49.326;8.430;2024-03-22T03:47:56;11.50;99.90
43673;DHT22;41723;49.326;8.430;2024-03-22T03:50:21;11.50;99.90
43673;DHT22;41723;49.326;8.430;2024-03-22T03:52:47;11.40;99.90
43673;DHT22;41723;49.326;8.430;2024-03-22T03:55:13;11.30;99.90
43673;DHT22;41723;49.326;8.430;2024-03-22T03:57:38;11.40;99.90
43673;DHT22;41723;49.326;8.430;2024-03-22T04:00:04;11.50;99.90
43673;DHT22;41723;49.326;8.430;2024-03-22T04:02:31;11.40;99.90
43673;DHT22;41723;49.326;8.430;2024-03-22T04:04:57;11.40;99.90
43673;DHT22;41723;49.326;8.430;2024-03-22T04:07:22;11.30;99.90
43673;DHT22;41723;49.326;8.430;2024-03-22T04:09:48;11.30;99.90
43673;DHT22;41723;49.326;8.430;2024-03-22T04:12:13;11.30;99.90
43673;DHT22;41723;49.326;8.430;2024-03-22T04:14:39;11.30;99.90
43673;DHT22;41723;49.326;8.430;2024-03-22T04:17:04;11.30;99.90
43673;DHT22;41723;49.326;8.430;2024-03-22T04:19:30;11.20;99.90
43673;DHT22;41723;49.326;8.430;2024-03-22T04:21:56;11.20;99.90
43673;DHT22;41723;49.326;8.430;2024-03-22T04:24:21;11.30;99.90
43673;DHT22;41723;49.326;8.430;2024-03-22T04:26:47;11.30;99.90
43673;DHT22;41723;49.326;8.430;2024-03-22T04:29:12;11.30;99.90
43673;DHT22;41723;49.326;8.430;2024-03-22T04:31:38;11.20;99.90
43673;DHT22;41723;49.326;8.430;2024-03-22T04:34:03;11.10;99.90
43673;DHT22;41723;49.326;8.430;2024-03-22T04:36:31;11.00;99.90
43673;DHT22;41723;49.326;8.430;2024-03-22T04:38:57;11.10;99.90
43673;DHT22;41723;49.326;8.430;2024-03-22T04:41:22;11.10;99.90
43673;DHT22;41723;49.326;8.430;2024-03-22T04:43:48;11.00;99.90
43673;DHT22;41723;49.326;8.430;2024-03-22T04:46:13;11.10;99.90
43673;DHT22;41723;49.326;8.430;2024-03-22T04:48:39;11.00;99.90
43673;DHT22;41723;49.326;8.430;2024-03-22T04:51:05;10.90;99.90
43673;DHT22;41723;49.326;8.430;2024-03-22T04:53:30;10.90;99.90
43673;DHT22;41723;49.326;8.430;2024-03-22T04:55:56;10.80;99.90
43673;DHT22;41723;49.326;8.430;2024-03-22T04:58:21;10.90;99.90
43673;DHT22;41723;49.326;8.430;2024-03-22T05:00:48;10.80;99.90
43673;DHT22;41723;49.326;8.430;2024-03-22T05:03:13;10.80;99.90
43673;DHT22;41723;49.326;8.430;2024-03-22T05:05:40;10.80;99.90
43673;DHT22;41723;49.326;8.430;2024-03-22T05:08:06;10.90;99.90
43673;DHT22;41723;49.326;8.430;2024-03-22T05:10:31;11.00;99.90
43673;DHT22;41723;49.326;8.430;2024-03-22T05:12:57;10.90;99.90
43673;DHT22;41723;49.326;8.430;2024-03-22T05:15:23;10.90;99.90
43673;DHT22;41723;49.326;8.430;2024-03-22T05:17:51;10.90;99.90
43673;DHT22;41723;49.326;8.430;2024-03-22T05:20:16;10.90;99.90
43673;DHT22;41723;49.326;8.430;2024-03-22T05:22:42;10.80;99.90
43673;DHT22;41723;49.326;8.430;2024-03-22T05:25:08;10.80;99.90
43673;DHT22;41723;49.326;8.430;2024-03-22T05:27:34;10.80;99.90
43673;DHT22;41723;49.326;8.430;2024-03-22T05:29:59;10.80;99.90
43673;DHT22;41723;49.326;8.430;2024-03-22T05:32:25;10.90;99.90
43673;DHT22;41723;49.326;8.430;2024-03-22T05:34:51;10.80;99.90
43673;DHT22;41723;49.326;8.430;2024-03-22T05:37:17;10.70;99.90
43673;DHT22;41723;49.326;8.430;2024-03-22T05:39:43;10.60;99.90
43673;DHT22;41723;49.326;8.430;2024-03-22T05:42:08;10.60;99.90
43673;DHT22;41723;49.326;8.430;2024-03-22T05:44:34;10.60;99.90
43673;DHT22;41723;49.326;8.430;2024-03-22T05:46:59;10.70;99.90
43673;DHT22;41723;49.326;8.430;2024-03-22T05:49:25;10.60;99.90
43673;DHT22;41723;49.326;8.430;2024-03-22T05:51:51;10.50;99.90
43673;DHT22;41723;49.326;8.430;2024-03-22T05:54:16;10.40;99.90
43673;DHT22;41723;49.326;8.430;2024-03-22T05:56:42;10.50;99.90
43673;DHT22;41723;49.326;8.430;2024-03-22T05:59:08;10.60;99.90
43673;DHT22;41723;49.326;8.430;2024-03-22T06:01:33;10.60;99.90
43673;DHT22;41723;49.326;8.430;2024-03-22T06:03:59;10.70;99.90
43673;DHT22;41723;49.326;8.430;2024-03-22T06:06:25;10.60;99.90
43673;DHT22;41723;49.326;8.430;2024-03-22T06:08:51;10.70;99.90
43673;DHT22;41723;49.326;8.430;2024-03-22T06:11:20;10.60;99.90
43673;DHT22;41723;49.326;8.430;2024-03-22T06:13:47;10.50;99.90
43673;DHT22;41723;49.326;8.430;2024-03-22T06:16:13;10.70;99.90
43673;DHT22;41723;49.326;8.430;2024-03-22T06:18:38;10.70;99.90
43673;DHT22;41723;49.326;8.430;2024-03-22T06:21:04;10.60;99.90
43673;DHT22;41723;49.326;8.430;2024-03-22T06:23:30;10.70;99.90
43673;DHT22;41723;49.326;8.430;2024-03-22T06:25:56;10.70;99.90
43673;DHT22;41723;49.326;8.430;2024-03-22T06:28:22;10.60;99.90
43673;DHT22;41723;49.326;8.430;2024-03-22T06:30:48;10.70;99.90
43673;DHT22;41723;49.326;8.430;2024-03-22T06:33:14;10.70;99.90
43673;DHT22;41723;49.326;8.430;2024-03-22T06:35:40;10.70;99.90
43673;DHT22;41723;49.326;8.430;2024-03-22T06:38:06;10.80;99.90
43673;DHT22;41723;49.326;8.430;2024-03-22T06:40:31;10.80;99.90
43673;DHT22;41723;49.326;8.430;2024-03-22T06:42:57;10.90;99.90
43673;DHT22;41723;49.326;8.430;2024-03-22T06:45:23;11.10;99.90
43673;DHT22;41723;49.326;8.430;2024-03-22T06:47:49;11.10;99.90
43673;DHT22;41723;49.326;8.430;2024-03-22T06:50:15;11.10;99.90
43673;DHT22;41723;49.326;8.430;2024-03-22T06:52:40;11.20;99.90
43673;DHT22;41723;49.326;8.430;2024-03-22T06:55:06;11.30;99.90
43673;DHT22;41723;49.326;8.430;2024-03-22T06:57:32;11.40;99.90
43673;DHT22;41723;49.326;8.430;2024-03-22T06:59:59;11.50;99.90
43673;DHT22;41723;49.326;8.430;2024-03-22T07:02:25;11.50;99.90
43673;DHT22;41723;49.326;8.430;2024-03-22T07:04:50;11.50;99.90
43673;DHT22;41723;49.326;8.430;2024-03-22T07:07:17;11.50;99.90
43673;DHT22;41723;49.326;8.430;2024-03-22T07:09:43;11.50;99.90
43673;DHT22;41723;49.326;8.430;2024-03-22T07:12:08;11.60;99.90
43673;DHT22;41723;49.326;8.430;2024-03-22T07:14:34;11.70;99.90
43673;DHT22;41723;49.326;8.430;2024-03-22T07:16:59;11.70;99.90
43673;DHT22;41723;49.326;8.430;2024-03-22T07:19:26;11.80;99.90
43673;DHT22;41723;49.326;8.430;2024-03-22T07:21:52;11.90;99.90
43673;DHT22;41723;49.326;8.430;2024-03-22T07:24:18;12.00;99.90
43673;DHT22;41723;49.326;8.430;2024-03-22T07:26:43;12.20;99.90
43673;DHT22;41723;49.326;8.430;2024-03-22T07:29:09;12.20;99.90
43673;DHT22;41723;49.326;8.430;2024-03-22T07:31:35;12.30;99.90
43673;DHT22;41723;49.326;8.430;2024-03-22T07:34:00;12.40;99.90
43673;DHT22;41723;49.326;8.430;2024-03-22T07:36:26;12.50;99.90
43673;DHT22;41723;49.326;8.430;2024-03-22T07:38:52;12.60;99.90
43673;DHT22;41723;49.326;8.430;2024-03-22T07:41:17;12.70;99.90
43673;DHT22;41723;49.326;8.430;2024-03-22T07:43:43;12.70;99.90
43673;DHT22;41723;49.326;8.430;2024-03-22T07:46:09;12.70;99.90
43673;DHT22;41723;49.326;8.430;2024-03-22T07:48:34;12.80;99.90
43673;DHT22;41723;49.326;8.430;2024-03-22T07:51:00;12.80;99.90
43673;DHT22;41723;49.326;8.430;2024-03-22T07:53:26;12.90;99.90
43673;DHT22;41723;49.326;8.430;2024-03-22T07:55:52;13.10;99.90
43673;DHT22;41723;49.326;8.430;2024-03-22T07:58:18;13.20;99.90
43673;DHT22;41723;49.326;8.430;2024-03-22T08:00:44;13.20;99.90
43673;DHT22;41723;49.326;8.430;2024-03-22T08:03:16;13.30;99.90
43673;DHT22;41723;49.326;8.430;2024-03-22T08:05:42;13.40;99.90
43673;DHT22;41723;49.326;8.430;2024-03-22T08:08:07;13.50;99.90
43673;DHT22;41723;49.326;8.430;2024-03-22T08:10:33;13.60;99.90
43673;DHT22;41723;49.326;8.430;2024-03-22T08:12:59;13.50;99.90
43673;DHT22;41723;49.326;8.430;2024-03-22T08:15:26;13.60;99.90
43673;DHT22;41723;49.326;8.430;2024-03-22T08:17:51;13.60;99.90
43673;DHT22;41723;49.326;8.430;2024-03-22T08:20:17;13.70;99.90
43673;DHT22;41723;49.326;8.430;2024-03-22T08:22:44;13.70;99.90
43673;DHT22;41723;49.326;8.430;2024-03-22T08:25:09;13.90;99.90
43673;DHT22;41723;49.326;8.430;2024-03-22T08:27:35;13.90;99.90
43673;DHT22;41723;49.326;8.430;2024-03-22T08:30:00;13.90;99.90
43673;DHT22;41723;49.326;8.430;2024-03-22T08:32:26;13.90;99.90
43673;DHT22;41723;49.326;8.430;2024-03-22T08:34:52;13.90;99.90
43673;DHT22;41723;49.326;8.430;2024-03-22T08:37:17;14.10;99.90
43673;DHT22;41723;49.326;8.430;2024-03-22T08:39:43;14.10;99.90
43673;DHT22;41723;49.326;8.430;2024-03-22T08:42:09;14.10;99.90
43673;DHT22;41723;49.326;8.430;2024-03-22T08:44:35;14.20;99.90
43673;DHT22;41723;49.326;8.430;2024-03-22T08:47:00;14.30;99.90
43673;DHT22;41723;49.326;8.430;2024-03-22T08:49:26;14.30;99.90
43673;DHT22;41723;49.326;8.430;2024-03-22T08:51:52;14.20;99.90
43673;DHT22;41723;49.326;8.430;2024-03-22T08:54:17;14.30;99.90
43673;DHT22;41723;49.326;8.430;2024-03-22T08:56:43;14.30;99.90
43673;DHT22;41723;49.326;8.430;2024-03-22T08:59:08;14.30;99.90
43673;DHT22;41723;49.326;8.430;2024-03-22T09:01:34;14.40;99.90
43673;DHT22;41723;49.326;8.430;2024-03-22T09:04:00;14.40;99.90
43673;DHT22;41723;49.326;8.430;2024-03-22T09:06:26;14.40;99.90
43673;DHT22;41723;49.326;8.430;2024-03-22T09:08:51;14.40;99.90
43673;DHT22;41723;49.326;8.430;2024-03-22T09:11:17;14.40;99.90
43673;DHT22;41723;49.326;8.430;2024-03-22T09:13:43;14.50;99.90
43673;DHT22;41723;49.326;8.430;2024-03-22T09:16:15;14.50;99.90
43673;DHT22;41723;49.326;8.430;2024-03-22T09:18:40;14.60;99.90
43673;DHT22;41723;49.326;8.430;2024-03-22T09:21:06;14.60;99.90
43673;DHT22;41723;49.326;8.430;2024-03-22T09:23:34;14.50;99.90
43673;DHT22;41723;49.326;8.430;2024-03-22T09:25:59;14.60;99.90
43673;DHT22;41723;49.326;8.430;2024-03-22T09:28:26;14.60;99.90
43673;DHT22;41723;49.326;8.430;2024-03-22T09:30:52;14.70;99.90
43673;DHT22;41723;49.326;8.430;2024-03-22T09:33:17;14.70;99.90
43673;DHT22;41723;49.326;8.430;2024-03-22T09:35:43;14.80;99.90
43673;DHT22;41723;49.326;8.430;2024-03-22T09:38:09;14.90;99.90
43673;DHT22;41723;49.326;8.430;2024-03-22T09:40:37;14.90;99.90
43673;DHT22;41723;49.326;8.430;2024-03-22T09:43:04;15.00;99.90
43673;DHT22;41723;49.326;8.430;2024-03-22T09:45:31;15.00;99.90
43673;DHT22;41723;49.326;8.430;2024-03-22T09:47:57;15.10;99.90
43673;DHT22;41723;49.326;8.430;2024-03-22T09:50:23;15.20;99.90
43673;DHT22;41723;49.326;8.430;2024-03-22T09:52:49;15.20;99.90
43673;DHT22;41723;49.326;8.430;2024-03-22T09:55:16;15.30;99.90
43673;DHT22;41723;49.326;8.430;2024-03-22T09:57:43;15.30;99.90
43673;DHT22;41723;49.326;8.430;2024-03-22T10:00:09;15.30;99.90
43673;DHT22;41723;49.326;8.430;2024-03-22T10:02:39;15.40;99.90
43673;DHT22;41723;49.326;8.430;2024-03-22T10:05:05;15.40;99.90
43673;DHT22;41723;49.326;8.430;2024-03-22T10:07:31;15.30;99.90
43673;DHT22;41723;49.326;8.430;2024-03-22T10:10:00;15.30;99.90
43673;DHT22;41723;49.326;8.430;2024-03-22T10:12:26;15.40;99.90
43673;DHT22;41723;49.326;8.430;2024-03-22T10:14:54;15.40;99.90
43673;DHT22;41723;49.326;8.430;2024-03-22T10:17:21;15.40;99.90
43673;DHT22;41723;49.326;8.430;2024-03-22T10:19:50;15.40;99.90
43673;DHT22;41723;49.326;8.430;2024-03-22T10:22:17;15.40;99.90
43673;DHT22;41723;49.326;8.430;2024-03-22T10:24:42;15.50;99.90
43673;DHT22;41723;49.326;8.430;2024-03-22T10:27:08;15.50;99.90
43673;DHT22;41723;49.326;8.430;2024-03-22T10:29:35;15.40;99.90
43673;DHT22;41723;49.326;8.430;2024-03-22T10:32:01;15.50;99.90
43673;DHT22;41723;49.326;8.430;2024-03-22T10:34:27;15.60;99.90
43673;DHT22;41723;49.326;8.430;2024-03-22T10:36:55;15.70;99.90
43673;DHT22;41723;49.326;8.430;2024-03-22T10:39:20;15.60;99.90
43673;DHT22;41723;49.326;8.430;2024-03-22T10:41:48;15.70;99.90
43673;DHT22;41723;49.326;8.430;2024-03-22T10:44:14;15.70;99.90
43673;DHT22;41723;49.326;8.430;2024-03-22T10:46:46;15.70;99.90
43673;DHT22;41723;49.326;8.430;2024-03-22T10:49:16;15.70;99.90
43673;DHT22;41723;49.326;8.430;2024-03-22T10:51:46;15.70;99.90
43673;DHT22;41723;49.326;8.430;2024-03-22T10:54:13;15.70;99.90
43673;DHT22;41723;49.326;8.430;2024-03-22T10:56:43;15.80;99.90
43673;DHT22;41723;49.326;8.430;2024-03-22T10:59:12;15.80;99.90
43673;DHT22;41723;49.326;8.430;2024-03-22T11:01:38;15.80;99.90
43673;DHT22;41723;49.326;8.430;2024-03-22T11:04:04;15.90;99.90
43673;DHT22;41723;49.326;8.430;2024-03-22T11:06:32;15.90;99.90
43673;DHT22;41723;49.326;8.430;2024-03-22T11:09:01;15.90;99.90
43673;DHT22;41723;49.326;8.430;2024-03-22T11:11:28;15.90;99.90
43673;DHT22;41723;49.326;8.430;2024-03-22T11:13:53;15.90;99.90
43673;DHT22;41723;49.326;8.430;2024-03-22T11:16:19;16.00;99.90
43673;DHT22;41723;49.326;8.430;2024-03-22T11:18:45;16.00;99.90
43673;DHT22;41723;49.326;8.430;2024-03-22T11:21:11;16.10;99.90
43673;DHT22;41723;49.326;8.430;2024-03-22T11:23:38;16.10;99.90
43673;DHT22;41723;49.326;8.430;2024-03-22T11:26:04;16.20;99.90
43673;DHT22;41723;49.326;8.430;2024-03-22T11:28:32;16.20;99.90
43673;DHT22;41723;49.326;8.430;2024-03-22T11:30:58;16.20;99.90
43673;DHT22;41723;49.326;8.430;2024-03-22T11:33:23;16.30;99.90
43673;DHT22;41723;49.326;8.430;2024-03-22T11:35:49;16.30;99.90
43673;DHT22;41723;49.326;8.430;2024-03-22T11:38:15;16.20;99.90
43673;DHT22;41723;49.326;8.430;2024-03-22T11:40:41;16.20;99.90
43673;DHT22;41723;49.326;8.430;2024-03-22T11:43:07;16.20;99.90
43673;DHT22;41723;49.326;8.430;2024-03-22T11:45:33;16.30;99.90
43673;DHT22;41723;49.326;8.430;2024-03-22T11:48:03;16.30;99.90
43673;DHT22;41723;49.326;8.430;2024-03-22T11:50:29;16.50;99.90
43673;DHT22;41723;49.326;8.430;2024-03-22T11:52:54;16.80;99.90
43673;DHT22;41723;49.326;8.430;2024-03-22T11:55:21;16.80;99.20
43673;DHT22;41723;49.326;8.430;2024-03-22T11:57:49;16.90;98.70
43673;DHT22;41723;49.326;8.430;2024-03-22T12:00:16;17.10;98.30
43673;DHT22;41723;49.326;8.430;2024-03-22T12:02:43;17.30;99.10
43673;DHT22;41723;49.326;8.430;2024-03-22T12:05:09;17.40;97.70
43673;DHT22;41723;49.326;8.430;2024-03-22T12:07:35;17.40;98.00
43673;DHT22;41723;49.326;8.430;2024-03-22T12:10:00;17.30;98.20
43673;DHT22;41723;49.326;8.430;2024-03-22T12:12:26;17.30;98.40
43673;DHT22;41723;49.326;8.430;2024-03-22T12:14:52;17.30;98.20
43673;DHT22;41723;49.326;8.430;2024-03-22T12:17:18;17.20;98.20
43673;DHT22;41723;49.326;8.430;2024-03-22T12:19:44;17.30;98.00
43673;DHT22;41723;49.326;8.430;2024-03-22T12:22:09;17.30;97.70
43673;DHT22;41723;49.326;8.430;2024-03-22T12:24:35;17.40;97.80
43673;DHT22;41723;49.326;8.430;2024-03-22T12:27:01;17.30;97.80
43673;DHT22;41723;49.326;8.430;2024-03-22T12:29:27;17.40;97.90
43673;DHT22;41723;49.326;8.430;2024-03-22T12:31:52;17.40;97.60
43673;DHT22;41723;49.326;8.430;2024-03-22T12:34:18;17.70;97.60
43673;DHT22;41723;49.326;8.430;2024-03-22T12:36:44;18.20;97.20
43673;DHT22;41723;49.326;8.430;2024-03-22T12:39:09;18.40;96.00
43673;DHT22;41723;49.326;8.430;2024-03-22T12:41:35;18.70;95.70
43673;DHT22;41723;49.326;8.430;2024-03-22T12:44:01;18.80;95.70
43673;DHT22;41723;49.326;8.430;2024-03-22T12:46:27;19.10;95.90
43673;DHT22;41723;49.326;8.430;2024-03-22T12:48:55;19.10;95.20
43673;DHT22;41723;49.326;8.430;2024-03-22T12:51:20;18.90;95.20
43673;DHT22;41723;49.326;8.430;2024-03-22T12:53:46;18.70;95.50
43673;DHT22;41723;49.326;8.430;2024-03-22T12:56:12;18.40;95.60
43673;DHT22;41723;49.326;8.430;2024-03-22T12:58:37;18.40;95.60
43673;DHT22;41723;49.326;8.430;2024-03-22T13:01:04;18.40;95.90
43673;DHT22;41723;49.326;8.430;2024-03-22T13:03:31;18.30;95.70
43673;DHT22;41723;49.326;8.430;2024-03-22T13:05:57;18.30;95.60
43673;DHT22;41723;49.326;8.430;2024-03-22T13:08:23;18.20;95.60
43673;DHT22;41723;49.326;8.430;2024-03-22T13:10:48;18.30;95.30
43673;DHT22;41723;49.326;8.430;2024-03-22T13:13:14;18.40;95.50
43673;DHT22;41723;49.326;8.430;2024-03-22T13:15:44;18.40;95.40
43673;DHT22;41723;49.326;8.430;2024-03-22T13:18:12;18.30;95.00
43673;DHT22;41723;49.326;8.430;2024-03-22T13:20:38;18.30;95.60
43673;DHT22;41723;49.326;8.430;2024-03-22T13:23:04;18.20;95.40
43673;DHT22;41723;49.326;8.430;2024-03-22T13:25:29;18.10;95.50
43673;DHT22;41723;49.326;8.430;2024-03-22T13:27:55;18.10;95.70
43673;DHT22;41723;49.326;8.430;2024-03-22T13:30:20;18.10;95.80
43673;DHT22;41723;49.326;8.430;2024-03-22T13:32:47;18.10;95.90
43673;DHT22;41723;49.326;8.430;2024-03-22T13:35:12;18.10;95.80
43673;DHT22;41723;49.326;8.430;2024-03-22T13:37:40;18.20;96.10
43673;DHT22;41723;49.326;8.430;2024-03-22T13:40:08;18.20;95.90
43673;DHT22;41723;49.326;8.430;2024-03-22T13:42:34;18.10;95.50
43673;DHT22;41723;49.326;8.430;2024-03-22T13:45:00;18.10;95.70
43673;DHT22;41723;49.326;8.430;2024-03-22T13:47:26;18.20;95.90
43673;DHT22;41723;49.326;8.430;2024-03-22T13:49:53;18.20;95.40
43673;DHT22;41723;49.326;8.430;2024-03-22T13:52:19;18.30;95.20
43673;DHT22;41723;49.326;8.430;2024-03-22T13:54:46;18.40;94.90
43673;DHT22;41723;49.326;8.430;2024-03-22T13:57:12;18.50;95.30
43673;DHT22;41723;49.326;8.430;2024-03-22T13:59:37;18.50;94.90
43673;DHT22;41723;49.326;8.430;2024-03-22T14:02:05;18.40;94.60
43673;DHT22;41723;49.326;8.430;2024-03-22T14:04:31;18.40;94.80
43673;DHT22;41723;49.326;8.430;2024-03-22T14:06:57;18.40;94.80
43673;DHT22;41723;49.326;8.430;2024-03-22T14:09:23;18.40;95.30
43673;DHT22;41723;49.326;8.430;2024-03-22T14:11:48;18.40;95.10
43673;DHT22;41723;49.326;8.430;2024-03-22T14:14:14;18.40;95.10
43673;DHT22;41723;49.326;8.430;2024-03-22T14:16:40;18.40;94.90
43673;DHT22;41723;49.326;8.430;2024-03-22T14:19:09;18.30;95.20
43673;DHT22;41723;49.326;8.430;2024-03-22T14:21:35;18.20;95.40
43673;DHT22;41723;49.326;8.430;2024-03-22T14:24:01;18.20;95.10
43673;DHT22;41723;49.326;8.430;2024-03-22T14:26:26;18.30;95.40
43673;DHT22;41723;49.326;8.430;2024-03-22T14:28:52;18.30;95.20
43673;DHT22;41723;49.326;8.430;2024-03-22T14:31:18;18.20;95.10
43673;DHT22;41723;49.326;8.430;2024-03-22T14:33:44;18.20;95.50
43673;DHT22;41723;49.326;8.430;2024-03-22T14:36:10;18.20;95.50
43673;DHT22;41723;49.326;8.430;2024-03-22T14:38:37;18.20;95.20
43673;DHT22;41723;49.326;8.430;2024-03-22T14:41:03;18.30;95.30
43673;DHT22;41723;49.326;8.430;2024-03-22T14:43:28;18.30;95.00
43673;DHT22;41723;49.326;8.430;2024-03-22T14:45:56;18.40;95.50
43673;DHT22;41723;49.326;8.430;2024-03-22T14:48:22;18.30;94.50
43673;DHT22;41723;49.326;8.430;2024-03-22T14:50:48;18.30;94.90
43673;DHT22;41723;49.326;8.430;2024-03-22T14:53:17;18.30;94.40
43673;DHT22;41723;49.326;8.430;2024-03-22T14:55:53;18.30;94.50
43673;DHT22;41723;49.326;8.430;2024-03-22T14:58:22;18.30;94.40
43673;DHT22;41723;49.326;8.430;2024-03-22T15:00:52;18.30;94.10
43673;DHT22;41723;49.326;8.430;2024-03-22T15:03:17;18.30;94.10
43673;DHT22;41723;49.326;8.430;2024-03-22T15:05:43;18.30;93.80
43673;DHT22;41723;49.326;8.430;2024-03-22T15:08:09;18.30;94.30
43673;DHT22;41723;49.326;8.430;2024-03-22T15:10:34;18.30;94.00
43673;DHT22;41723;49.326;8.430;2024-03-22T15:13:00;18.40;93.90
43673;DHT22;41723;49.326;8.430;2024-03-22T15:15:26;18.40;94.00
43673;DHT22;41723;49.326;8.430;2024-03-22T15:17:51;18.40;93.70
43673;DHT22;41723;49.326;8.430;2024-03-22T15:20:17;18.50;93.90
43673;DHT22;41723;49.326;8.430;2024-03-22T15:22:43;18.40;93.30